Haskell, Arkansas
Current Conditions -  °F | °C
As of 6:53 PM on Friday 28 Nov 2014 (Local Time) from KLIT Reporting Station
Clear Clear  
Wind Chill: 45°   Ceiling: Unl
Heat Index: 49°   Visibility: 10mi
Dew Point: 35°   Wind: 8mph
Humidity: 59%   Direction: 170°S
Pressure: 30.09"   Gusts: NA
Location:  34.5666°N, 92.583°W
Report Text: KLIT 290053Z 17007KT 10SM CLR 09/02 A3009 RMK AO2 SLP192 T00940017
Loading
Personal Weather Stations






























Interactive Weather Map New forecast layout! Learn more

10-Day Weather Forecast

Advertisements
Track Severe Weather on mobile